Time;durP1;ratioP1;P1;durP2;ratioP2;P2;SDS_P1;SDS_P2;PMS_P1;PMS_P2;Temp;Humidity;BMP_temperature;BMP_pressure;BME280_temperature;BME280_humidity;BME280_pressure;Samples;Min_cycle;Max_cycle;Signal;HPM_P1;HPM_P2
2021/07/31 00:01:40;;;;;;;9.90;4.68;;;;;;;26.16;52.34;99812.06;5113147;28;20046;-81
2021/07/31 00:04:06;;;;;;;6.47;5.10;;;;;;;26.10;52.29;99807.00;5113134;28;20054;-80
2021/07/31 00:06:32;;;;;;;8.55;5.53;;;;;;;26.12;52.71;99807.31;5113577;28;20110;-83
2021/07/31 00:08:58;;;;;;;4.75;4.22;;;;;;;25.95;52.97;99803.22;5113384;28;20592;-80
2021/07/31 00:11:23;;;;;;;8.82;4.97;;;;;;;25.92;52.83;99809.88;5113025;28;20023;-80
2021/07/31 00:13:49;;;;;;;9.18;4.85;;;;;;;25.82;52.63;99779.81;5112972;28;20104;-81
2021/07/31 00:16:15;;;;;;;12.23;4.50;;;;;;;26.01;52.92;99794.81;5113231;28;20063;-78
2021/07/31 00:18:40;;;;;;;10.50;5.43;;;;;;;25.93;52.75;99802.09;5112582;28;20479;-83
2021/07/31 00:21:06;;;;;;;8.50;4.93;;;;;;;25.85;52.50;99804.50;5112877;28;20508;-78
2021/07/31 00:23:31;;;;;;;10.55;5.00;;;;;;;25.78;52.56;99805.63;5112834;28;20032;-80
2021/07/31 00:25:57;;;;;;;5.38;4.43;;;;;;;25.78;52.88;99810.50;5112778;28;20030;-79
2021/07/31 00:28:23;;;;;;;9.75;4.55;;;;;;;25.81;52.94;99803.88;5112835;28;20031;-78
2021/07/31 00:30:50;;;;;;;7.00;4.70;;;;;;;25.84;52.62;99802.94;5095943;28;20477;-79
2021/07/31 00:33:23;;;;;;;10.80;4.75;;;;;;;25.83;52.72;99801.31;5112751;28;20031;-79
2021/07/31 00:35:49;;;;;;;8.27;4.60;;;;;;;25.83;52.73;99795.63;5112748;28;20028;-79
2021/07/31 00:38:14;;;;;;;5.72;4.55;;;;;;;25.80;52.94;99799.44;5112712;28;20084;-78
2021/07/31 00:40:41;;;;;;;7.97;5.10;;;;;;;25.80;53.19;99797.38;5112680;28;20036;-82
2021/07/31 00:43:08;;;;;;;6.07;4.40;;;;;;;25.85;52.87;99795.97;5112687;28;20032;-77
2021/07/31 00:45:35;;;;;;;7.03;4.40;;;;;;;25.88;52.88;99792.13;5113101;28;20020;-81
2021/07/31 00:48:01;;;;;;;6.45;4.80;;;;;;;25.82;52.68;99794.06;5130002;28;20031;-80
2021/07/31 00:50:28;;;;;;;12.43;5.07;;;;;;;25.81;52.83;99801.03;5112568;28;20027;-82
2021/07/31 00:52:54;;;;;;;7.25;4.07;;;;;;;25.75;52.91;99800.09;5112854;28;20355;-80
2021/07/31 00:55:22;;;;;;;10.18;4.18;;;;;;;25.73;52.74;99802.59;5112847;28;20059;-79
2021/07/31 00:57:49;;;;;;;8.40;4.30;;;;;;;25.74;52.56;99795.63;5112495;28;20070;-79
2021/07/31 01:00:18;;;;;;;8.15;4.85;;;;;;;25.70;52.72;99797.84;5112497;28;20027;-78
2021/07/31 01:02:49;;;;;;;10.85;5.00;;;;;;;25.70;52.39;99792.16;5112459;28;20023;-81
2021/07/31 01:05:14;;;;;;;8.70;4.35;;;;;;;25.71;52.00;99797.38;5114289;28;20466;-80
2021/07/31 01:07:42;;;;;;;9.55;4.00;;;;;;;25.74;51.90;99802.16;5115355;28;20039;-81
2021/07/31 01:10:08;;;;;;;9.65;4.13;;;;;;;25.73;51.50;99796.91;5117276;28;20028;-80
2021/07/31 01:12:35;;;;;;;9.10;4.45;;;;;;;25.74;51.51;99787.09;5116432;28;20058;-79
2021/07/31 01:15:03;;;;;;;9.05;4.57;;;;;;;25.66;51.73;99795.16;5116402;28;20500;-80
2021/07/31 01:17:29;;;;;;;10.07;4.28;;;;;;;25.52;52.11;99802.28;5116402;27;20090;-80
2021/07/31 01:19:54;;;;;;;7.72;4.57;;;;;;;25.52;52.10;99792.97;5116353;28;20394;-77
2021/07/31 01:22:20;;;;;;;7.75;4.57;;;;;;;25.48;51.96;99798.81;5116282;28;20114;-79
2021/07/31 01:24:45;;;;;;;5.10;4.13;;;;;;;25.50;52.09;99789.78;5116216;28;20058;-81
2021/07/31 01:27:11;;;;;;;5.85;4.35;;;;;;;25.48;51.77;99787.41;5116347;28;20386;-82
2021/07/31 01:29:36;;;;;;;7.82;4.65;;;;;;;25.53;51.74;99786.78;5116149;28;20473;-82
2021/07/31 01:32:03;;;;;;;6.38;4.63;;;;;;;25.57;51.42;99784.56;5116356;28;20028;-83
2021/07/31 01:34:30;;;;;;;6.85;4.60;;;;;;;25.57;51.05;99790.28;5116647;28;20323;-79
2021/07/31 01:36:56;;;;;;;11.45;5.43;;;;;;;25.56;50.71;99802.13;5116372;28;20023;-77
2021/07/31 01:39:21;;;;;;;7.80;4.28;;;;;;;25.47;50.47;99796.44;5133107;27;20038;-82
2021/07/31 01:41:47;;;;;;;10.38;4.63;;;;;;;25.32;50.94;99797.06;5115916;28;20039;-79
2021/07/31 01:44:13;;;;;;;8.48;4.78;;;;;;;25.38;50.48;99799.28;5115926;28;20031;-80
2021/07/31 01:46:39;;;;;;;7.25;4.55;;;;;;;25.34;50.60;99805.13;5115485;28;20042;-82
2021/07/31 01:49:05;;;;;;;7.35;4.60;;;;;;;25.27;50.21;99796.91;5115764;28;20028;-82
2021/07/31 01:51:32;;;;;;;10.88;4.90;;;;;;;25.17;50.32;99779.03;5115741;28;20027;-77
2021/07/31 01:53:58;;;;;;;11.88;4.93;;;;;;;25.21;50.29;99791.03;5115638;28;20030;-78
2021/07/31 01:56:24;;;;;;;6.00;4.05;;;;;;;25.36;50.23;99791.22;5115678;28;20031;-78
2021/07/31 01:58:50;;;;;;;8.00;3.67;;;;;;;25.31;50.43;99786.16;5098713;28;20034;-82
2021/07/31 02:01:15;;;;;;;9.98;4.53;;;;;;;25.18;51.04;99779.81;5115489;28;20038;-82
2021/07/31 02:03:44;;;;;;;10.55;5.18;;;;;;;25.12;50.83;99779.66;5116286;28;20081;-77
2021/07/31 02:06:10;;;;;;;5.72;3.95;;;;;;;25.14;50.78;99779.16;5116189;27;20382;-78
2021/07/31 02:08:36;;;;;;;8.50;3.65;;;;;;;25.18;50.57;99788.34;5115316;28;20035;-79
2021/07/31 02:11:01;;;;;;;7.07;4.40;;;;;;;25.23;50.30;99788.50;5115324;28;20089;-78
2021/07/31 02:13:27;;;;;;;11.38;4.38;;;;;;;25.25;50.43;99779.50;5115846;28;20031;-79
2021/07/31 02:15:52;;;;;;;6.35;4.22;;;;;;;25.29;50.09;99775.22;5115257;28;20032;-79
2021/07/31 02:18:18;;;;;;;6.93;4.10;;;;;;;25.21;50.05;99779.66;5114052;28;20063;-81
2021/07/31 02:20:45;;;;;;;8.95;4.30;;;;;;;25.11;50.54;99780.13;5114703;28;20101;-78
2021/07/31 02:23:11;;;;;;;7.55;3.92;;;;;;;25.04;50.61;99776.28;5115080;28;20039;-78
2021/07/31 02:25:36;;;;;;;9.45;5.07;;;;;;;25.21;50.42;99778.88;5115236;28;20028;-79
2021/07/31 02:28:04;;;;;;;7.20;4.32;;;;;;;25.25;50.18;99774.59;5115320;28;20035;-78
2021/07/31 02:30:30;;;;;;;8.80;4.28;;;;;;;25.20;50.30;99765.91;5114924;28;20115;-78
2021/07/31 02:32:55;;;;;;;8.77;4.57;;;;;;;25.25;50.35;99773.81;5115449;28;20122;-82
2021/07/31 02:35:21;;;;;;;9.18;4.10;;;;;;;25.30;50.78;99778.84;5115038;28;20038;-82
2021/07/31 02:37:47;;;;;;;8.80;4.93;;;;;;;25.24;51.92;99778.69;5132453;27;20463;-79
2021/07/31 02:40:12;;;;;;;10.05;4.90;;;;;;;25.17;51.69;99766.84;5132232;27;20355;-81
2021/07/31 02:42:38;;;;;;;7.82;4.55;;;;;;;25.26;50.93;99770.50;5114752;28;20540;-79
2021/07/31 02:45:05;;;;;;;7.25;4.50;;;;;;;25.26;51.49;99767.66;5114723;28;20028;-79
2021/07/31 02:47:31;;;;;;;7.60;4.57;;;;;;;25.21;51.29;99768.28;5131848;27;20423;-78
2021/07/31 02:49:56;;;;;;;8.50;5.15;;;;;;;25.12;49.53;99756.88;5114565;28;20028;-82
2021/07/31 02:52:22;;;;;;;6.22;4.85;;;;;;;25.16;48.90;99753.88;5114581;28;20038;-78
2021/07/31 02:54:51;;;;;;;6.15;4.28;;;;;;;25.11;48.71;99758.13;5114771;28;20462;-81
2021/07/31 02:57:17;;;;;;;6.72;4.22;;;;;;;25.14;48.73;99767.78;5114990;27;20035;-80
2021/07/31 02:59:43;;;;;;;6.28;4.15;;;;;;;25.08;48.63;99759.88;5131579;27;20085;-78
2021/07/31 03:02:08;;;;;;;10.02;4.55;;;;;;;25.01;48.91;99743.06;5132027;27;20106;-78
2021/07/31 03:04:34;;;;;;;6.35;4.32;;;;;;;24.90;49.39;99742.75;5114256;28;20376;-82
2021/07/31 03:06:59;;;;;;;8.43;5.30;;;;;;;24.84;49.33;99741.78;5114772;28;20027;-78
2021/07/31 03:09:25;;;;;;;4.68;4.20;;;;;;;24.87;49.47;99742.88;5113532;28;20413;-78
2021/07/31 03:11:51;;;;;;;8.10;4.85;;;;;;;24.84;50.07;99744.63;5112855;28;20081;-79
2021/07/31 03:14:19;;;;;;;11.77;4.85;;;;;;;24.93;49.65;99729.63;5129625;27;20386;-79
2021/07/31 03:16:44;;;;;;;12.05;4.85;;;;;;;24.85;49.61;99732.00;5112660;28;20416;-78
2021/07/31 03:19:13;;;;;;;7.55;4.75;;;;;;;24.80;49.88;99738.31;5112709;28;20032;-79
2021/07/31 03:21:38;;;;;;;30.30;22.88;;;;;;;24.76;50.03;99735.59;5112533;28;20111;-80
2021/07/31 03:24:05;;;;;;;35.10;31.33;;;;;;;24.67;50.43;99743.34;5112246;28;20062;-83
2021/07/31 03:26:30;;;;;;;18.13;12.48;;;;;;;24.55;50.90;99736.50;5112617;28;20019;-81
2021/07/31 03:28:58;;;;;;;12.18;8.93;;;;;;;24.65;50.74;99738.09;5112323;28;20140;-81
2021/07/31 03:31:24;;;;;;;6.55;5.10;;;;;;;24.64;51.04;99735.75;5113039;28;20031;-78
2021/07/31 03:33:50;;;;;;;8.07;4.85;;;;;;;24.54;51.51;99737.75;5113731;28;20512;-79
2021/07/31 03:36:16;;;;;;;11.00;5.13;;;;;;;24.51;51.67;99733.81;5114294;28;20024;-82
2021/07/31 03:38:42;;;;;;;14.38;6.25;;;;;;;24.59;50.64;99727.81;5131360;27;20023;-79
2021/07/31 03:41:10;;;;;;;12.15;6.68;;;;;;;24.68;50.35;99725.00;5113583;28;20443;-82
2021/07/31 03:43:36;;;;;;;7.57;4.63;;;;;;;24.76;49.63;99723.44;5113573;28;20055;-78
2021/07/31 03:46:07;;;;;;;12.77;5.07;;;;;;;24.80;49.80;99729.78;5113714;28;20051;-78
2021/07/31 03:48:33;;;;;;;5.03;4.53;;;;;;;24.82;49.49;99732.91;5113556;28;20019;-80
2021/07/31 03:50:59;;;;;;;12.80;4.50;;;;;;;24.89;48.69;99732.63;5130527;27;20023;-80
2021/07/31 03:53:29;;;;;;;5.72;3.95;;;;;;;24.81;48.87;99729.28;5113385;28;20032;-78
2021/07/31 03:55:55;;;;;;;10.70;4.57;;;;;;;24.79;49.36;99719.66;5113367;28;20028;-79
2021/07/31 03:58:20;;;;;;;11.07;4.75;;;;;;;24.76;49.13;99715.69;5114559;28;20038;-78
2021/07/31 04:00:46;;;;;;;8.73;4.60;;;;;;;24.80;49.13;99721.22;5113710;28;20034;-80
2021/07/31 04:03:14;;;;;;;8.85;4.55;;;;;;;24.83;49.40;99726.00;5113441;28;20394;-78
2021/07/31 04:05:40;;;;;;;5.90;4.45;;;;;;;24.77;49.27;99722.97;5113009;28;20028;-82
2021/07/31 04:08:06;;;;;;;13.73;5.15;;;;;;;24.62;49.76;99715.53;5130691;27;20118;-79
2021/07/31 04:10:33;;;;;;;7.53;4.80;;;;;;;24.63;49.54;99723.56;5113587;28;20027;-82
2021/07/31 04:12:58;;;;;;;8.25;4.45;;;;;;;24.77;48.90;99711.59;5113309;28;20165;-80
2021/07/31 04:15:24;;;;;;;11.88;4.80;;;;;;;24.79;49.28;99713.97;5113512;28;20480;-80
2021/07/31 04:17:52;;;;;;;12.85;5.63;;;;;;;24.79;49.31;99720.44;5129810;27;20494;-82
2021/07/31 04:20:18;;;;;;;11.65;4.63;;;;;;;24.77;49.63;99722.97;5113499;28;20506;-77
2021/07/31 04:22:48;;;;;;;11.80;6.22;;;;;;;24.97;49.09;99713.19;5113385;28;20470;-78
2021/07/31 04:25:14;;;;;;;11.43;4.80;;;;;;;25.18;48.16;99717.97;5113329;28;20027;-81
2021/07/31 04:27:39;;;;;;;9.55;4.28;;;;;;;25.39;47.72;99716.22;5113319;28;20473;-80
2021/07/31 04:30:06;;;;;;;6.38;4.15;;;;;;;25.67;47.08;99725.50;5112730;28;20454;-80
2021/07/31 04:32:32;;;;;;;14.90;4.63;;;;;;;25.84;46.54;99723.16;5095847;28;20039;-82
2021/07/31 04:34:57;;;;;;;8.93;4.60;;;;;;;26.11;45.76;99733.66;5112691;28;20027;-80
2021/07/31 04:37:23;;;;;;;13.75;5.03;;;;;;;26.41;45.50;99736.69;5113307;28;20122;-80
2021/07/31 04:39:49;;;;;;;11.23;4.15;;;;;;;26.69;44.63;99734.53;5112896;28;20027;-77
2021/07/31 04:42:14;;;;;;;7.65;4.50;;;;;;;27.06;44.38;99746.47;5112562;28;20359;-79
2021/07/31 04:44:40;;;;;;;7.97;4.45;;;;;;;27.40;43.73;99748.75;5113134;28;20484;-76
2021/07/31 04:47:07;;;;;;;8.25;4.13;;;;;;;27.68;43.15;99755.00;5112538;28;20439;-78
2021/07/31 04:49:35;;;;;;;9.30;4.47;;;;;;;28.03;42.52;99753.56;5129696;28;20051;-81
2021/07/31 04:52:05;;;;;;;8.70;4.35;;;;;;;28.32;42.07;99753.53;5130002;28;20027;-77
2021/07/31 04:54:30;;;;;;;8.32;4.05;;;;;;;28.65;41.27;99753.28;5112592;28;20062;-79
2021/07/31 04:56:56;;;;;;;9.75;4.28;;;;;;;28.96;40.47;99760.50;5129824;28;20059;-78
2021/07/31 04:59:21;;;;;;;6.22;4.15;;;;;;;29.25;39.22;99779.63;5113108;28;20100;-81
2021/07/31 05:01:49;;;;;;;8.10;4.25;;;;;;;29.54;38.06;99775.81;5129888;28;20035;-81
2021/07/31 05:04:17;;;;;;;6.60;4.32;;;;;;;29.92;36.76;99776.75;5113515;28;20035;-80
2021/07/31 05:06:43;;;;;;;5.60;4.13;;;;;;;30.19;36.04;99773.38;5112620;28;20474;-80
2021/07/31 05:09:08;;;;;;;13.00;4.35;;;;;;;30.40;35.76;99796.22;5112734;28;20059;-81
2021/07/31 05:11:34;;;;;;;8.05;4.50;;;;;;;30.62;35.61;99795.59;5112926;28;20043;-81
2021/07/31 05:14:02;;;;;;;10.02;5.85;;;;;;;30.58;35.15;99801.59;5112905;28;20454;-81
2021/07/31 05:16:28;;;;;;;14.43;5.97;;;;;;;30.87;34.57;99808.34;5112440;28;20042;-77
2021/07/31 05:18:54;;;;;;;8.68;6.35;;;;;;;30.82;34.62;99807.00;5111888;28;20134;-80
2021/07/31 05:21:19;;;;;;;11.65;8.80;;;;;;;30.87;34.38;99814.09;5113572;28;20062;-82
2021/07/31 05:23:47;;;;;;;15.63;8.82;;;;;;;31.07;34.29;99816.03;5112385;28;20028;-80
2021/07/31 05:26:13;;;;;;;13.40;9.40;;;;;;;31.95;33.11;99831.31;5112712;28;20454;-82
2021/07/31 05:28:39;;;;;;;15.32;9.98;;;;;;;32.36;32.45;99825.91;5112511;28;20112;-82
2021/07/31 05:31:05;;;;;;;18.70;9.68;;;;;;;32.50;31.75;99836.38;5111784;28;20043;-81
2021/07/31 05:33:31;;;;;;;12.65;8.10;;;;;;;32.38;32.61;99842.66;5112420;28;20069;-81
2021/07/31 05:35:56;;;;;;;17.58;9.73;;;;;;;32.21;33.19;99849.16;5112676;28;20031;-78
2021/07/31 05:38:22;;;;;;;16.33;8.35;;;;;;;31.30;34.51;99837.84;5112640;28;20038;-81
2021/07/31 05:40:47;;;;;;;13.38;7.78;;;;;;;31.22;35.35;99848.25;5112448;28;20114;-78
2021/07/31 05:43:19;;;;;;;22.67;10.93;;;;;;;29.46;40.72;99844.25;5112037;28;20514;-78
2021/07/31 05:45:47;;;;;;;27.85;13.95;;;;;;;29.05;42.45;99849.16;5112221;28;20373;-81
2021/07/31 05:48:22;;;;;;;25.42;13.98;;;;;;;29.16;43.05;99852.16;5094914;28;20035;-78
2021/07/31 05:50:47;;;;;;;29.52;14.63;;;;;;;29.26;43.21;99857.78;5112162;28;20031;-81
2021/07/31 05:53:13;;;;;;;24.55;14.57;;;;;;;29.16;43.83;99855.03;5113063;28;20104;-78
2021/07/31 05:55:42;;;;;;;34.50;16.45;;;;;;;29.88;41.88;99865.06;5115325;28;20479;-77
2021/07/31 05:58:10;;;;;;;31.40;19.27;;;;;;;29.79;41.74;99863.16;5115884;27;20446;-77
2021/07/31 06:00:39;;;;;;;26.20;16.75;;;;;;;29.70;41.38;99869.81;5115595;28;20113;-80
2021/07/31 06:03:10;;;;;;;26.70;16.67;;;;;;;30.31;40.49;99860.34;5116867;27;20103;-80
2021/07/31 06:05:35;;;;;;;27.13;13.93;;;;;;;30.18;39.25;99863.59;5115770;27;20385;-79
2021/07/31 06:08:04;;;;;;;25.60;14.60;;;;;;;30.80;38.36;99869.91;5115308;28;20032;-79
2021/07/31 06:10:31;;;;;;;23.33;13.52;;;;;;;30.96;36.92;99868.47;5115692;28;20123;-77
2021/07/31 06:12:59;;;;;;;22.83;14.15;;;;;;;31.22;36.49;99857.66;5115645;28;20063;-80
2021/07/31 06:15:27;;;;;;;20.10;11.98;;;;;;;30.81;36.76;99851.38;5116612;27;20024;-81
2021/07/31 06:17:58;;;;;;;20.55;11.95;;;;;;;31.03;36.51;99863.03;5114570;27;20051;-78
2021/07/31 06:20:28;;;;;;;20.20;12.50;;;;;;;31.49;35.80;99864.09;5117131;27;20471;-80
2021/07/31 06:22:54;;;;;;;20.98;11.43;;;;;;;31.60;35.12;99869.88;5115412;28;20551;-78
2021/07/31 06:25:20;;;;;;;18.67;11.50;;;;;;;31.32;35.54;99860.31;5115080;28;20032;-78
2021/07/31 06:27:50;;;;;;;21.10;11.07;;;;;;;31.76;35.29;99851.91;5114954;28;20077;-78
2021/07/31 06:30:21;;;;;;;15.80;9.25;;;;;;;31.28;35.41;99843.34;5115185;28;20485;-80
2021/07/31 06:32:49;;;;;;;12.32;8.85;;;;;;;31.63;35.44;99845.84;5114862;28;20035;-80
2021/07/31 06:35:16;;;;;;;14.77;8.35;;;;;;;31.81;34.82;99851.16;5115442;28;20486;-80
2021/07/31 06:37:44;;;;;;;14.25;9.75;;;;;;;32.32;33.98;99848.38;5115812;28;20470;-80
2021/07/31 06:40:13;;;;;;;16.00;9.52;;;;;;;32.85;33.12;99844.44;5114666;28;20020;-79
2021/07/31 06:42:41;;;;;;;14.88;7.82;;;;;;;32.10;34.56;99849.13;5116069;28;20066;-76
2021/07/31 06:45:10;;;;;;;14.45;7.15;;;;;;;32.01;34.54;99852.25;5115277;28;20347;-78
2021/07/31 06:47:36;;;;;;;16.27;9.38;;;;;;;32.24;34.52;99836.59;5115653;28;20035;-81
2021/07/31 06:50:09;;;;;;;18.33;8.38;;;;;;;33.43;32.99;99840.16;5115383;28;20032;-79
2021/07/31 06:52:41;;;;;;;14.77;7.57;;;;;;;33.87;32.09;99839.94;5116085;28;20031;-80
2021/07/31 06:55:10;;;;;;;10.65;7.20;;;;;;;33.95;31.58;99836.53;5114520;28;20466;-77
2021/07/31 06:57:36;;;;;;;17.67;7.57;;;;;;;32.78;33.08;99832.69;5114574;28;20036;-79
2021/07/31 07:00:04;;;;;;;15.10;7.38;;;;;;;32.45;33.26;99821.97;5132038;27;20047;-78
2021/07/31 07:02:32;;;;;;;11.20;6.05;;;;;;;32.72;32.45;99826.16;5114223;28;20032;-76
2021/07/31 07:05:02;;;;;;;13.15;6.10;;;;;;;33.10;31.86;99818.75;5113783;28;20446;-77
2021/07/31 07:07:28;;;;;;;14.52;5.72;;;;;;;33.88;30.96;99824.22;5114394;28;20440;-81
2021/07/31 07:09:57;;;;;;;9.02;5.45;;;;;;;34.80;29.99;99826.69;5114568;28;20088;-80
2021/07/31 07:12:25;;;;;;;10.82;6.50;;;;;;;35.08;29.19;99823.50;5114122;28;20035;-79
2021/07/31 07:14:56;;;;;;;10.70;6.40;;;;;;;35.54;28.17;99818.78;5113665;28;20080;-81
2021/07/31 07:17:24;;;;;;;15.15;6.55;;;;;;;34.59;29.22;99828.47;5113947;28;20543;-77
2021/07/31 07:19:52;;;;;;;11.52;6.07;;;;;;;35.04;28.58;99822.25;5114088;28;20092;-79
2021/07/31 07:22:22;;;;;;;13.75;6.05;;;;;;;35.35;28.23;99820.84;5114053;28;20488;-79
2021/07/31 07:24:48;;;;;;;10.88;5.93;;;;;;;36.21;27.10;99814.91;5113562;28;20027;-81
2021/07/31 07:27:16;;;;;;;9.48;5.65;;;;;;;36.96;26.39;99822.63;5114610;28;20430;-77
2021/07/31 07:29:42;;;;;;;11.15;5.82;;;;;;;37.33;25.97;99815.03;5113611;28;20023;-79
2021/07/31 07:32:10;;;;;;;12.10;6.15;;;;;;;37.63;25.67;99825.53;5113720;28;20035;-78
2021/07/31 07:34:44;;;;;;;10.50;6.28;;;;;;;37.99;24.56;99822.91;5114266;28;20024;-78
2021/07/31 07:37:09;;;;;;;13.27;6.93;;;;;;;36.63;25.92;99818.19;5114014;28;20451;-77
2021/07/31 07:39:35;;;;;;;12.07;6.50;;;;;;;35.99;26.60;99817.41;5113586;28;20114;-82
2021/07/31 07:42:03;;;;;;;11.50;6.10;;;;;;;36.13;25.84;99822.69;5113436;28;20157;-81
2021/07/31 07:44:29;;;;;;;9.02;6.15;;;;;;;36.92;25.27;99822.19;5131149;27;20024;-83
2021/07/31 07:46:55;;;;;;;17.85;6.25;;;;;;;37.12;24.83;99828.66;5113373;28;20028;-80
2021/07/31 07:49:20;;;;;;;10.57;6.00;;;;;;;36.91;24.50;99825.63;5114045;27;20031;-77
2021/07/31 07:51:46;;;;;;;8.50;5.95;;;;;;;37.38;24.08;99831.56;5113467;28;20523;-78
2021/07/31 07:54:11;;;;;;;15.43;6.65;;;;;;;37.11;24.23;99830.00;5113413;28;20111;-79
2021/07/31 07:56:37;;;;;;;13.95;6.03;;;;;;;37.18;24.07;99832.22;5113429;28;20035;-78
2021/07/31 07:59:04;;;;;;;13.32;6.95;;;;;;;37.39;24.04;99829.44;5114886;28;20073;-80
2021/07/31 08:01:32;;;;;;;13.75;6.28;;;;;;;37.39;23.99;99827.34;5113450;27;20062;-79
2021/07/31 08:03:57;;;;;;;8.07;5.25;;;;;;;37.76;23.17;99828.38;5113562;28;20620;-82
2021/07/31 08:06:23;;;;;;;11.98;5.93;;;;;;;38.27;23.04;99836.75;5113274;28;20130;-81
2021/07/31 08:08:48;;;;;;;13.13;6.00;;;;;;;38.68;22.45;99829.41;5113127;28;20030;-83
2021/07/31 08:11:14;;;;;;;11.55;6.10;;;;;;;39.37;22.09;99829.94;5112998;28;20039;-79
2021/07/31 08:13:39;;;;;;;11.13;5.63;;;;;;;38.40;22.68;99833.78;5113548;28;20023;-82
2021/07/31 08:16:10;;;;;;;14.35;5.65;;;;;;;37.30;23.62;99838.59;5112657;28;20496;-81
2021/07/31 08:18:36;;;;;;;7.05;4.97;;;;;;;38.86;21.91;99840.03;5112200;28;20044;-83
2021/07/31 08:21:02;;;;;;;12.55;5.88;;;;;;;39.03;21.69;99831.63;5113233;28;20035;-82
2021/07/31 08:23:27;;;;;;;16.77;6.05;;;;;;;38.99;21.99;99833.34;5113452;28;20047;-82
2021/07/31 08:25:56;;;;;;;10.48;5.15;;;;;;;38.97;21.71;99836.81;5112786;28;20027;-83
2021/07/31 08:28:27;;;;;;;6.88;4.30;;;;;;;39.50;21.10;99842.22;5130183;27;20038;-81
2021/07/31 08:30:54;;;;;;;13.00;5.00;;;;;;;40.20;19.68;99847.00;5112699;28;20443;-79
2021/07/31 08:33:23;;;;;;;10.75;5.40;;;;;;;40.43;19.52;99852.88;5113244;28;20359;-80
2021/07/31 08:35:52;;;;;;;10.43;4.93;;;;;;;39.42;20.79;99841.41;5129981;27;20024;-81
2021/07/31 08:38:23;;;;;;;8.68;4.65;;;;;;;39.76;20.08;99855.75;5112467;28;20031;-79
2021/07/31 08:40:51;;;;;;;9.38;5.43;;;;;;;40.63;19.51;99850.38;5114254;28;20024;-82
2021/07/31 08:43:19;;;;;;;8.45;4.78;;;;;;;40.22;18.84;99858.09;5129766;28;20060;-80
2021/07/31 08:45:48;;;;;;;12.43;4.10;;;;;;;39.77;19.21;99865.28;5129794;28;20563;-83
2021/07/31 08:48:17;;;;;;;11.50;4.90;;;;;;;39.97;19.51;99858.56;5129807;28;20032;-83
2021/07/31 08:50:46;;;;;;;7.78;4.22;;;;;;;40.38;18.50;99838.47;5112887;28;20543;-82
2021/07/31 08:53:14;;;;;;;9.48;4.88;;;;;;;40.28;18.93;99861.59;5113968;28;20028;-83
2021/07/31 08:55:46;;;;;;;10.98;4.82;;;;;;;41.34;17.97;99860.09;5112970;28;20444;-78
2021/07/31 08:58:17;;;;;;;11.30;4.72;;;;;;;41.66;18.16;99855.69;5112612;28;20023;-79
2021/07/31 09:00:48;;;;;;;6.13;4.03;;;;;;;41.16;17.82;99852.50;5112478;28;20036;-81
2021/07/31 09:03:17;;;;;;;9.25;4.93;;;;;;;40.04;19.35;99846.16;5112728;28;20039;-82
2021/07/31 09:05:45;;;;;;;9.68;4.65;;;;;;;39.93;19.72;99846.50;5114395;28;20027;-81
2021/07/31 09:08:17;;;;;;;13.10;5.78;;;;;;;39.38;21.57;99848.94;5112121;28;20032;-83
2021/07/31 09:10:46;;;;;;;11.43;5.75;;;;;;;39.80;22.24;99844.53;5112379;28;20024;-81
2021/07/31 09:13:18;;;;;;;15.65;6.78;;;;;;;39.51;24.82;99843.78;5113733;28;20028;-78
2021/07/31 09:15:47;;;;;;;11.55;6.07;;;;;;;40.09;24.60;99841.53;5112880;28;20366;-80
2021/07/31 09:18:25;;;;;;;9.82;5.88;;;;;;;40.01;25.40;99841.50;5111889;28;20058;-81
2021/07/31 09:20:57;;;;;;;12.95;6.18;;;;;;;39.26;26.24;99842.69;5112198;28;20034;-78
2021/07/31 09:23:44;;;;;;;11.50;6.10;;;;;;;38.94;26.83;99840.88;5112184;28;20034;-81
2021/07/31 09:26:37;;;;;;;11.45;6.68;;;;;;;38.01;27.12;99835.50;5112020;28;20149;-82
2021/07/31 09:29:11;;;;;;;8.07;5.07;;;;;;;38.34;26.32;99824.44;5116659;28;20026;-83
2021/07/31 09:31:49;;;;;;;7.75;5.47;;;;;;;39.23;24.63;99832.19;5117888;28;20032;-78
2021/07/31 09:34:28;;;;;;;6.53;4.32;;;;;;;39.16;24.80;99824.16;5133200;27;20035;-80
2021/07/31 09:37:16;;;;;;;9.38;4.45;;;;;;;39.16;23.69;99827.06;5117561;28;20028;-80
2021/07/31 09:40:13;;;;;;;8.13;4.97;;;;;;;38.77;24.04;99803.53;5117175;28;20074;-78
2021/07/31 09:42:41;;;;;;;14.57;6.00;;;;;;;39.68;23.25;99814.19;5114173;28;20038;-82
2021/07/31 09:45:14;;;;;;;9.48;6.18;;;;;;;39.95;22.47;99808.84;5116741;28;20024;-82
2021/07/31 09:48:06;;;;;;;12.52;4.93;;;;;;;39.41;23.35;99802.00;5116666;28;20024;-78
2021/07/31 09:50:43;;;;;;;8.60;4.30;;;;;;;38.83;24.70;99817.91;5115813;28;20043;-82
2021/07/31 09:53:16;;;;;;;11.93;5.13;;;;;;;39.23;24.20;99815.50;5132561;27;20024;-82
2021/07/31 09:55:47;;;;;;;9.32;5.53;;;;;;;38.89;23.76;99820.69;5116620;28;20494;-79
2021/07/31 09:58:18;;;;;;;10.43;5.35;;;;;;;38.27;24.85;99814.28;5115587;28;20031;-78
2021/07/31 10:00:45;;;;;;;11.35;5.22;;;;;;;37.64;25.61;99813.34;5132578;27;20027;-77
2021/07/31 10:03:14;;;;;;;11.13;5.18;;;;;;;37.61;25.81;99810.81;5116147;28;20432;-78
2021/07/31 10:05:46;;;;;;;10.00;5.70;;;;;;;37.62;25.69;99821.06;5115987;28;20028;-82
2021/07/31 10:08:15;;;;;;;13.50;5.18;;;;;;;37.49;25.73;99811.03;5116641;28;20522;-78
2021/07/31 10:10:43;;;;;;;12.73;5.47;;;;;;;37.96;25.58;99816.06;5115652;28;20086;-81
2021/07/31 10:13:11;;;;;;;6.05;4.80;;;;;;;37.97;25.66;99808.91;5115261;28;20035;-82
2021/07/31 10:15:39;;;;;;;11.55;4.72;;;;;;;38.76;23.99;99812.81;5115653;28;20096;-82
2021/07/31 10:18:10;;;;;;;14.07;5.15;;;;;;;39.41;23.35;99807.81;5115024;28;20050;-78
2021/07/31 10:20:38;;;;;;;7.57;4.97;;;;;;;38.62;24.42;99802.59;5116327;28;20535;-82
2021/07/31 10:23:08;;;;;;;10.05;4.85;;;;;;;38.65;24.41;99813.09;5116194;28;20482;-82
2021/07/31 10:26:07;;;;;;;7.80;4.40;;;;;;;37.67;25.51;99796.94;5116414;28;20024;-79
2021/07/31 10:28:35;;;;;;;9.50;5.43;;;;;;;37.95;25.20;99805.03;5116948;28;20458;-77
2021/07/31 10:31:29;;;;;;;8.30;5.00;;;;;;;37.58;25.65;99800.31;5114929;28;20076;-78
2021/07/31 10:34:00;;;;;;;11.18;5.10;;;;;;;38.06;24.96;99801.84;5115514;28;20032;-79
2021/07/31 10:36:34;;;;;;;11.15;4.63;;;;;;;38.59;24.63;99797.94;5115187;28;20047;-81
2021/07/31 10:39:23;;;;;;;6.88;3.90;;;;;;;38.51;24.54;99795.75;5131784;27;20031;-81
2021/07/31 10:42:06;;;;;;;7.50;4.60;;;;;;;38.85;23.44;99789.06;5115152;28;20080;-82
2021/07/31 10:44:35;;;;;;;8.55;4.60;;;;;;;39.59;22.75;99793.56;5114848;28;20036;-79
2021/07/31 10:47:19;;;;;;;8.10;4.22;;;;;;;37.88;24.19;99797.81;5114714;28;20019;-78
2021/07/31 10:49:48;;;;;;;11.70;4.75;;;;;;;38.59;23.57;99797.94;5114625;28;20027;-83
2021/07/31 10:52:51;;;;;;;9.98;4.68;;;;;;;39.11;22.58;99804.75;5115019;27;20096;-81
2021/07/31 10:55:47;;;;;;;9.05;4.90;;;;;;;38.67;23.70;99793.75;5115149;28;20370;-78
2021/07/31 10:58:17;;;;;;;9.60;4.38;;;;;;;38.41;23.61;99785.97;5114479;28;20031;-82
2021/07/31 11:01:27;;;;;;;13.90;4.88;;;;;;;38.83;23.31;99788.06;5115107;28;20036;-78
2021/07/31 11:03:55;;;;;;;6.40;4.55;;;;;;;39.19;23.34;99779.41;5109412;28;20058;-81
2021/07/31 11:06:24;;;;;;;9.38;4.63;;;;;;;38.41;23.93;99767.75;5114354;28;20154;-82
2021/07/31 11:08:51;;;;;;;11.80;4.82;;;;;;;37.84;24.72;99771.25;5114282;28;20034;-78
2021/07/31 11:11:24;;;;;;;9.43;4.57;;;;;;;38.38;24.20;99766.75;5115056;28;20124;-78
2021/07/31 11:13:54;;;;;;;14.65;5.13;;;;;;;38.32;24.09;99763.22;5115487;28;20020;-83
2021/07/31 11:16:26;;;;;;;9.40;4.60;;;;;;;38.25;24.80;99763.91;5115002;28;20430;-78
2021/07/31 11:19:01;;;;;;;11.00;5.40;;;;;;;38.01;25.40;99762.13;5115113;28;20047;-80
2021/07/31 11:21:32;;;;;;;10.85;4.93;;;;;;;38.16;25.45;99749.88;5114004;28;20024;-80
2021/07/31 11:24:00;;;;;;;14.13;5.25;;;;;;;38.31;25.10;99750.06;5114328;28;20118;-78
2021/07/31 11:26:45;;;;;;;13.60;5.10;;;;;;;37.64;25.53;99754.53;5113919;28;20545;-78
2021/07/31 11:29:18;;;;;;;15.80;5.20;;;;;;;37.27;25.92;99753.47;5114004;28;20035;-83
2021/07/31 11:31:55;;;;;;;11.45;4.63;;;;;;;37.86;24.87;99756.16;5113781;28;20058;-82
2021/07/31 11:34:24;;;;;;;10.43;4.70;;;;;;;37.70;25.34;99741.44;5115358;27;20054;-78
2021/07/31 11:36:57;;;;;;;11.77;5.18;;;;;;;38.30;24.50;99742.69;5113725;28;20046;-82